sensor_id;sensor_type;location;lat;lon;timestamp;pressure;altitude;pressure_sealevel;temperature;humidity
20228;BME280;12195;55.790;37.572;2023-11-19T00:01:57;100700.77;;;-3.83;64.58
20228;BME280;12195;55.790;37.572;2023-11-19T00:04:29;100703.98;;;-3.95;64.75
20228;BME280;12195;55.790;37.572;2023-11-19T00:07:03;100694.39;;;-4.03;64.74
20228;BME280;12195;55.790;37.572;2023-11-19T00:09:37;100697.59;;;-4.15;65.05
20228;BME280;12195;55.790;37.572;2023-11-19T00:12:11;100694.79;;;-4.27;65.12
20228;BME280;12195;55.790;37.572;2023-11-19T00:14:45;100694.43;;;-4.43;65.08
20228;BME280;12195;55.790;37.572;2023-11-19T00:17:18;100697.58;;;-4.56;65.46
20228;BME280;12195;55.790;37.572;2023-11-19T00:19:52;100692.15;;;-4.70;65.65
20228;BME280;12195;55.790;37.572;2023-11-19T00:22:24;100688.52;;;-4.81;65.95
20228;BME280;12195;55.790;37.572;2023-11-19T00:24:57;100689.95;;;-4.92;66.25
20228;BME280;12195;55.790;37.572;2023-11-19T00:27:31;100696.67;;;-4.97;66.54
20228;BME280;12195;55.790;37.572;2023-11-19T00:30:04;100692.28;;;-5.02;66.79
20228;BME280;12195;55.790;37.572;2023-11-19T00:32:38;100693.80;;;-5.10;67.03
20228;BME280;12195;55.790;37.572;2023-11-19T00:35:12;100694.59;;;-5.13;67.19
20228;BME280;12195;55.790;37.572;2023-11-19T00:37:48;100687.75;;;-5.14;67.25
20228;BME280;12195;55.790;37.572;2023-11-19T00:40:21;100683.42;;;-5.16;67.42
20228;BME280;12195;55.790;37.572;2023-11-19T00:42:54;100680.83;;;-5.18;67.55
20228;BME280;12195;55.790;37.572;2023-11-19T00:45:29;100683.39;;;-5.18;67.67
20228;BME280;12195;55.790;37.572;2023-11-19T00:48:02;100674.70;;;-5.24;67.74
20228;BME280;12195;55.790;37.572;2023-11-19T00:50:36;100670.34;;;-5.28;67.85
20228;BME280;12195;55.790;37.572;2023-11-19T00:53:11;100680.41;;;-5.34;68.00
20228;BME280;12195;55.790;37.572;2023-11-19T00:55:44;100680.33;;;-5.39;68.20
20228;BME280;12195;55.790;37.572;2023-11-19T00:58:18;100675.96;;;-5.43;68.42
20228;BME280;12195;55.790;37.572;2023-11-19T01:00:51;100675.00;;;-5.46;68.55
20228;BME280;12195;55.790;37.572;2023-11-19T01:03:24;100674.91;;;-5.51;68.67
20228;BME280;12195;55.790;37.572;2023-11-19T01:05:57;100665.43;;;-5.55;68.95
20228;BME280;12195;55.790;37.572;2023-11-19T01:08:33;100666.23;;;-5.56;69.07
20228;BME280;12195;55.790;37.572;2023-11-19T01:11:07;100662.79;;;-5.58;69.04
20228;BME280;12195;55.790;37.572;2023-11-19T01:13:40;100658.47;;;-5.60;69.12
20228;BME280;12195;55.790;37.572;2023-11-19T01:16:15;100652.44;;;-5.62;69.42
20228;BME280;12195;55.790;37.572;2023-11-19T01:18:48;100652.39;;;-5.64;69.57
20228;BME280;12195;55.790;37.572;2023-11-19T01:21:21;100649.78;;;-5.67;69.68
20228;BME280;12195;55.790;37.572;2023-11-19T01:23:55;100649.61;;;-5.73;69.72
20228;BME280;12195;55.790;37.572;2023-11-19T01:26:28;100649.57;;;-5.75;69.72
20228;BME280;12195;55.790;37.572;2023-11-19T01:29:00;100645.20;;;-5.79;69.86
20228;BME280;12195;55.790;37.572;2023-11-19T01:31:33;100645.20;;;-5.80;69.99
20228;BME280;12195;55.790;37.572;2023-11-19T01:34:05;100634.92;;;-5.83;70.18
20228;BME280;12195;55.790;37.572;2023-11-19T01:36:39;100635.86;;;-5.78;70.28
20228;BME280;12195;55.790;37.572;2023-11-19T01:39:11;100635.02;;;-5.77;70.32
20228;BME280;12195;55.790;37.572;2023-11-19T01:41:46;100640.22;;;-5.74;70.25
20228;BME280;12195;55.790;37.572;2023-11-19T01:44:19;100637.67;;;-5.74;70.23
20228;BME280;12195;55.790;37.572;2023-11-19T01:46:51;100631.80;;;-5.70;70.07
20228;BME280;12195;55.790;37.572;2023-11-19T01:49:25;100637.70;;;-5.72;70.11
20228;BME280;12195;55.790;37.572;2023-11-19T01:51:59;100636.87;;;-5.72;70.05
20228;BME280;12195;55.790;37.572;2023-11-19T01:54:34;100634.31;;;-5.72;70.10
20228;BME280;12195;55.790;37.572;2023-11-19T01:57:06;100630.88;;;-5.72;70.29
20228;BME280;12195;55.790;37.572;2023-11-19T01:59:39;100625.76;;;-5.73;70.35
20228;BME280;12195;55.790;37.572;2023-11-19T02:02:13;100623.16;;;-5.75;70.27
20228;BME280;12195;55.790;37.572;2023-11-19T02:04:51;100623.08;;;-5.78;70.32
20228;BME280;12195;55.790;37.572;2023-11-19T02:07:24;100622.24;;;-5.77;70.33
20228;BME280;12195;55.790;37.572;2023-11-19T02:09:57;100631.58;;;-5.79;70.40
20228;BME280;12195;55.790;37.572;2023-11-19T02:12:34;100629.08;;;-5.76;70.34
20228;BME280;12195;55.790;37.572;2023-11-19T02:15:07;100629.08;;;-5.76;70.39
20228;BME280;12195;55.790;37.572;2023-11-19T02:17:40;100630.00;;;-5.74;70.31
20228;BME280;12195;55.790;37.572;2023-11-19T02:20:13;100624.80;;;-5.77;70.37
20228;BME280;12195;55.790;37.572;2023-11-19T02:22:48;100622.20;;;-5.79;70.50
20228;BME280;12195;55.790;37.572;2023-11-19T02:25:25;100623.91;;;-5.79;70.48
20228;BME280;12195;55.790;37.572;2023-11-19T02:27:59;100629.12;;;-5.75;70.78
20228;BME280;12195;55.790;37.572;2023-11-19T02:30:32;100631.89;;;-5.67;71.05
20228;BME280;12195;55.790;37.572;2023-11-19T02:33:05;100636.42;;;-5.55;71.26
20228;BME280;12195;55.790;37.572;2023-11-19T02:35:38;100626.52;;;-5.42;71.42
20228;BME280;12195;55.790;37.572;2023-11-19T02:38:12;100620.13;;;-5.23;71.17
20228;BME280;12195;55.790;37.572;2023-11-19T02:40:45;100614.48;;;-5.09;71.16
20228;BME280;12195;55.790;37.572;2023-11-19T02:43:18;100618.20;;;-4.95;70.76
20228;BME280;12195;55.790;37.572;2023-11-19T02:45:50;100609.09;;;-4.82;70.52
20228;BME280;12195;55.790;37.572;2023-11-19T02:48:25;100614.41;;;-4.73;70.27
20228;BME280;12195;55.790;37.572;2023-11-19T02:50:58;100612.05;;;-4.63;69.95
20228;BME280;12195;55.790;37.572;2023-11-19T02:53:31;100611.39;;;-4.54;69.64
20228;BME280;12195;55.790;37.572;2023-11-19T02:56:04;100607.31;;;-4.43;69.50
20228;BME280;12195;55.790;37.572;2023-11-19T02:58:51;100604.08;;;-4.35;69.05
20228;BME280;12195;55.790;37.572;2023-11-19T03:01:24;100603.37;;;-4.28;68.43
20228;BME280;12195;55.790;37.572;2023-11-19T03:04:05;100600.94;;;-4.20;68.05
20228;BME280;12195;55.790;37.572;2023-11-19T03:06:38;100601.00;;;-4.17;67.62
20228;BME280;12195;55.790;37.572;2023-11-19T03:09:11;100596.81;;;-4.12;67.55
20228;BME280;12195;55.790;37.572;2023-11-19T03:11:43;100592.59;;;-4.09;67.37
20228;BME280;12195;55.790;37.572;2023-11-19T03:14:16;100592.66;;;-4.06;67.17
20228;BME280;12195;55.790;37.572;2023-11-19T03:16:49;100591.03;;;-4.01;67.03
20228;BME280;12195;55.790;37.572;2023-11-19T03:19:23;100596.28;;;-3.95;66.94
20228;BME280;12195;55.790;37.572;2023-11-19T03:21:56;100587.80;;;-3.91;66.47
20228;BME280;12195;55.790;37.572;2023-11-19T03:24:30;100587.02;;;-3.87;66.33
20228;BME280;12195;55.790;37.572;2023-11-19T03:27:04;100591.36;;;-3.83;66.12
20228;BME280;12195;55.790;37.572;2023-11-19T03:29:36;100589.70;;;-3.79;65.75
20228;BME280;12195;55.790;37.572;2023-11-19T03:32:09;100591.45;;;-3.77;65.56
20228;BME280;12195;55.790;37.572;2023-11-19T03:34:43;100588.97;;;-3.72;65.49
20228;BME280;12195;55.790;37.572;2023-11-19T03:37:16;100588.18;;;-3.68;65.29
20228;BME280;12195;55.790;37.572;2023-11-19T03:39:49;100581.38;;;-3.65;64.99
20228;BME280;12195;55.790;37.572;2023-11-19T03:42:22;100587.41;;;-3.61;64.86
20228;BME280;12195;55.790;37.572;2023-11-19T03:44:57;100584.88;;;-3.60;64.71
20228;BME280;12195;55.790;37.572;2023-11-19T03:47:31;100579.80;;;-3.57;64.68
20228;BME280;12195;55.790;37.572;2023-11-19T03:50:05;100572.95;;;-3.58;64.49
20228;BME280;12195;55.790;37.572;2023-11-19T03:52:40;100566.92;;;-3.60;64.47
20228;BME280;12195;55.790;37.572;2023-11-19T03:55:15;100565.17;;;-3.62;64.42
20228;BME280;12195;55.790;37.572;2023-11-19T03:57:48;100574.56;;;-3.64;64.46
20228;BME280;12195;55.790;37.572;2023-11-19T04:00:21;100570.25;;;-3.67;64.53
20228;BME280;12195;55.790;37.572;2023-11-19T04:02:54;100567.66;;;-3.68;64.41
20228;BME280;12195;55.790;37.572;2023-11-19T04:05:27;100562.47;;;-3.71;64.30
20228;BME280;12195;55.790;37.572;2023-11-19T04:07:59;100563.26;;;-3.75;64.08
20228;BME280;12195;55.790;37.572;2023-11-19T04:10:32;100564.89;;;-3.80;63.90
20228;BME280;12195;55.790;37.572;2023-11-19T04:13:05;100552.89;;;-3.83;63.74
20228;BME280;12195;55.790;37.572;2023-11-19T04:15:38;100543.45;;;-3.84;63.48
20228;BME280;12195;55.790;37.572;2023-11-19T04:18:10;100543.45;;;-3.85;63.49
20228;BME280;12195;55.790;37.572;2023-11-19T04:20:43;100536.59;;;-3.85;63.62
20228;BME280;12195;55.790;37.572;2023-11-19T04:23:16;100533.16;;;-3.87;63.42
20228;BME280;12195;55.790;37.572;2023-11-19T04:25:49;100531.39;;;-3.91;63.37
20228;BME280;12195;55.790;37.572;2023-11-19T04:28:22;100524.48;;;-3.95;63.53
20228;BME280;12195;55.790;37.572;2023-11-19T04:30:57;100517.48;;;-4.03;63.53
20228;BME280;12195;55.790;37.572;2023-11-19T04:33:31;100517.38;;;-4.11;63.46
20228;BME280;12195;55.790;37.572;2023-11-19T04:36:04;100509.53;;;-4.18;63.73
20228;BME280;12195;55.790;37.572;2023-11-19T04:38:37;100524.86;;;-4.23;63.73
20228;BME280;12195;55.790;37.572;2023-11-19T04:41:11;100523.95;;;-4.25;63.89
20228;BME280;12195;55.790;37.572;2023-11-19T04:43:45;100521.33;;;-4.29;63.70
20228;BME280;12195;55.790;37.572;2023-11-19T04:46:18;100528.11;;;-4.31;63.78
20228;BME280;12195;55.790;37.572;2023-11-19T04:48:51;100539.23;;;-4.31;64.03
20228;BME280;12195;55.790;37.572;2023-11-19T04:51:29;100543.61;;;-4.25;64.14
20228;BME280;12195;55.790;37.572;2023-11-19T04:54:01;100542.89;;;-4.17;63.99
20228;BME280;12195;55.790;37.572;2023-11-19T04:56:34;100543.91;;;-4.07;63.91
20228;BME280;12195;55.790;37.572;2023-11-19T04:59:08;100547.50;;;-3.98;63.87
20228;BME280;12195;55.790;37.572;2023-11-19T05:01:46;100541.70;;;-3.86;63.61
20228;BME280;12195;55.790;37.572;2023-11-19T05:04:16;100546.18;;;-3.75;63.41
20228;BME280;12195;55.790;37.572;2023-11-19T05:06:50;100539.46;;;-3.65;63.14
20228;BME280;12195;55.790;37.572;2023-11-19T05:09:23;100536.19;;;-3.57;63.26
20228;BME280;12195;55.790;37.572;2023-11-19T05:11:56;100541.45;;;-3.48;63.43
20228;BME280;12195;55.790;37.572;2023-11-19T05:14:30;100538.16;;;-3.39;63.49
20228;BME280;12195;55.790;37.572;2023-11-19T05:17:03;100539.11;;;-3.33;63.63
20228;BME280;12195;55.790;37.572;2023-11-19T05:19:36;100530.61;;;-3.29;63.91
20228;BME280;12195;55.790;37.572;2023-11-19T05:22:08;100540.12;;;-3.22;63.83
20228;BME280;12195;55.790;37.572;2023-11-19T05:24:41;100541.86;;;-3.18;63.88
20228;BME280;12195;55.790;37.572;2023-11-19T05:27:15;100544.48;;;-3.15;64.03
20228;BME280;12195;55.790;37.572;2023-11-19T05:29:47;100544.52;;;-3.12;64.16
20228;BME280;12195;55.790;37.572;2023-11-19T05:32:21;100551.45;;;-3.06;64.16
20228;BME280;12195;55.790;37.572;2023-11-19T05:34:56;100555.78;;;-3.02;64.24
20228;BME280;12195;55.790;37.572;2023-11-19T05:37:31;100548.95;;;-3.00;64.25
20228;BME280;12195;55.790;37.572;2023-11-19T05:40:07;100554.13;;;-2.97;64.21
20228;BME280;12195;55.790;37.572;2023-11-19T05:42:42;100548.16;;;-2.95;64.06
20228;BME280;12195;55.790;37.572;2023-11-19T05:45:15;100551.63;;;-2.91;64.11
20228;BME280;12195;55.790;37.572;2023-11-19T05:47:48;100544.82;;;-2.89;63.86
20228;BME280;12195;55.790;37.572;2023-11-19T05:50:23;100550.00;;;-2.86;63.99
20228;BME280;12195;55.790;37.572;2023-11-19T05:52:58;100551.72;;;-2.85;63.94
20228;BME280;12195;55.790;37.572;2023-11-19T05:55:33;100544.88;;;-2.83;63.85
20228;BME280;12195;55.790;37.572;2023-11-19T05:58:06;100548.31;;;-2.83;63.61
20228;BME280;12195;55.790;37.572;2023-11-19T06:00:42;100547.47;;;-2.82;63.61
20228;BME280;12195;55.790;37.572;2023-11-19T06:03:16;100554.36;;;-2.81;63.60
20228;BME280;12195;55.790;37.572;2023-11-19T06:05:50;100542.35;;;-2.80;63.52
20228;BME280;12195;55.790;37.572;2023-11-19T06:08:22;100552.67;;;-2.77;63.24
20228;BME280;12195;55.790;37.572;2023-11-19T06:10:55;100541.50;;;-2.79;63.34
20228;BME280;12195;55.790;37.572;2023-11-19T06:13:27;100546.64;;;-2.79;63.49
20228;BME280;12195;55.790;37.572;2023-11-19T06:16:03;100538.95;;;-2.78;63.19
20228;BME280;12195;55.790;37.572;2023-11-19T06:18:38;100533.80;;;-2.79;63.35
20228;BME280;12195;55.790;37.572;2023-11-19T06:21:11;100542.35;;;-2.80;63.33
20228;BME280;12195;55.790;37.572;2023-11-19T06:23:44;100542.35;;;-2.80;63.34
20228;BME280;12195;55.790;37.572;2023-11-19T06:26:17;100532.09;;;-2.79;63.52
20228;BME280;12195;55.790;37.572;2023-11-19T06:28:50;100531.25;;;-2.78;63.26
20228;BME280;12195;55.790;37.572;2023-11-19T06:31:23;100532.98;;;-2.75;63.31
20228;BME280;12195;55.790;37.572;2023-11-19T06:33:57;100534.72;;;-2.73;63.18
20228;BME280;12195;55.790;37.572;2023-11-19T06:36:30;100539.91;;;-2.70;63.07
20228;BME280;12195;55.790;37.572;2023-11-19T06:39:04;100530.55;;;-2.66;62.99
20228;BME280;12195;55.790;37.572;2023-11-19T06:41:38;100525.46;;;-2.60;62.64
20228;BME280;12195;55.790;37.572;2023-11-19T06:44:12;100520.34;;;-2.59;62.52
20228;BME280;12195;55.790;37.572;2023-11-19T06:46:46;100520.36;;;-2.57;62.39
20228;BME280;12195;55.790;37.572;2023-11-19T06:49:19;100514.39;;;-2.55;62.33
20228;BME280;12195;55.790;37.572;2023-11-19T06:51:54;100511.00;;;-2.51;62.21
20228;BME280;12195;55.790;37.572;2023-11-19T06:54:28;100514.44;;;-2.49;61.76
20228;BME280;12195;55.790;37.572;2023-11-19T06:57:01;100507.62;;;-2.47;61.46
20228;BME280;12195;55.790;37.572;2023-11-19T06:59:34;100511.05;;;-2.45;61.42
20228;BME280;12195;55.790;37.572;2023-11-19T07:02:09;100511.94;;;-2.43;61.34
20228;BME280;12195;55.790;37.572;2023-11-19T07:04:42;100516.25;;;-2.40;61.06
20228;BME280;12195;55.790;37.572;2023-11-19T07:07:15;100521.41;;;-2.39;60.86
20228;BME280;12195;55.790;37.572;2023-11-19T07:09:48;100525.70;;;-2.38;60.95
20228;BME280;12195;55.790;37.572;2023-11-19T07:12:21;100521.39;;;-2.40;60.56
20228;BME280;12195;55.790;37.572;2023-11-19T07:14:54;100521.39;;;-2.40;60.75
20228;BME280;12195;55.790;37.572;2023-11-19T07:17:26;100527.39;;;-2.41;60.45
20228;BME280;12195;55.790;37.572;2023-11-19T07:20:00;100516.21;;;-2.43;60.66
20228;BME280;12195;55.790;37.572;2023-11-19T07:22:33;100529.11;;;-2.40;60.52
20228;BME280;12195;55.790;37.572;2023-11-19T07:25:07;100519.70;;;-2.40;60.49
20228;BME280;12195;55.790;37.572;2023-11-19T07:27:41;100520.58;;;-2.36;60.20
20228;BME280;12195;55.790;37.572;2023-11-19T07:30:14;100529.16;;;-2.36;60.37
20228;BME280;12195;55.790;37.572;2023-11-19T07:32:48;100531.74;;;-2.33;60.43
20228;BME280;12195;55.790;37.572;2023-11-19T07:35:21;100529.23;;;-2.28;60.13
20228;BME280;12195;55.790;37.572;2023-11-19T07:37:53;100526.79;;;-2.15;60.40
20228;BME280;12195;55.790;37.572;2023-11-19T07:40:26;100524.11;;;-2.24;59.97
20228;BME280;12195;55.790;37.572;2023-11-19T07:43:00;100527.52;;;-2.26;59.86
20228;BME280;12195;55.790;37.572;2023-11-19T07:45:34;100524.92;;;-2.28;59.86
20228;BME280;12195;55.790;37.572;2023-11-19T07:48:06;100515.47;;;-2.33;60.16
20228;BME280;12195;55.790;37.572;2023-11-19T07:50:40;100521.45;;;-2.33;60.52
20228;BME280;12195;55.790;37.572;2023-11-19T07:53:16;100519.78;;;-2.31;60.20
20228;BME280;12195;55.790;37.572;2023-11-19T07:55:49;100523.25;;;-2.26;60.11
20228;BME280;12195;55.790;37.572;2023-11-19T07:58:22;100523.25;;;-2.26;59.86
20228;BME280;12195;55.790;37.572;2023-11-19T08:00:55;100529.23;;;-2.28;59.74
20228;BME280;12195;55.790;37.572;2023-11-19T08:03:28;100532.66;;;-2.29;59.82
20228;BME280;12195;55.790;37.572;2023-11-19T08:06:01;100519.73;;;-2.34;59.97
20228;BME280;12195;55.790;37.572;2023-11-19T08:08:35;100521.59;;;-2.19;60.24
20228;BME280;12195;55.790;37.572;2023-11-19T08:11:10;100514.61;;;-2.32;60.04
20228;BME280;12195;55.790;37.572;2023-11-19T08:13:43;100517.19;;;-2.32;59.96
20228;BME280;12195;55.790;37.572;2023-11-19T08:16:16;100511.20;;;-2.30;60.01
20228;BME280;12195;55.790;37.572;2023-11-19T08:18:50;100508.64;;;-2.30;59.87
20228;BME280;12195;55.790;37.572;2023-11-19T08:21:24;100491.50;;;-2.31;60.13
20228;BME280;12195;55.790;37.572;2023-11-19T08:23:58;100483.73;;;-2.35;60.43
20228;BME280;12195;55.790;37.572;2023-11-19T08:26:31;100501.89;;;-2.19;60.24
20228;BME280;12195;55.790;37.572;2023-11-19T08:29:06;100501.08;;;-2.12;60.06
20228;BME280;12195;55.790;37.572;2023-11-19T08:31:41;100497.68;;;-2.08;59.83
20228;BME280;12195;55.790;37.572;2023-11-19T08:34:16;100491.71;;;-2.04;59.50
20228;BME280;12195;55.790;37.572;2023-11-19T08:36:52;100498.59;;;-2.04;59.46
20228;BME280;12195;55.790;37.572;2023-11-19T08:39:26;100495.98;;;-2.07;59.74
20228;BME280;12195;55.790;37.572;2023-11-19T08:41:58;100492.55;;;-2.06;59.82
20228;BME280;12195;55.790;37.572;2023-11-19T08:44:32;100483.16;;;-2.01;59.93
20228;BME280;12195;55.790;37.572;2023-11-19T08:47:05;100494.39;;;-1.95;59.98
20228;BME280;12195;55.790;37.572;2023-11-19T08:49:39;100487.55;;;-1.90;59.68
20228;BME280;12195;55.790;37.572;2023-11-19T08:52:11;100478.09;;;-1.91;59.55
20228;BME280;12195;55.790;37.572;2023-11-19T08:54:46;100494.39;;;-1.92;59.32
20228;BME280;12195;55.790;37.572;2023-11-19T08:57:19;100496.95;;;-1.92;59.45
20228;BME280;12195;55.790;37.572;2023-11-19T08:59:52;100501.25;;;-1.91;59.23
20228;BME280;12195;55.790;37.572;2023-11-19T09:02:28;100489.20;;;-1.98;59.09
20228;BME280;12195;55.790;37.572;2023-11-19T09:05:01;100492.59;;;-2.03;59.42
20228;BME280;12195;55.790;37.572;2023-11-19T09:07:34;100499.41;;;-2.05;59.35
20228;BME280;12195;55.790;37.572;2023-11-19T09:10:08;100495.11;;;-2.08;59.26
20228;BME280;12195;55.790;37.572;2023-11-19T09:12:43;100493.34;;;-2.13;59.27
20228;BME280;12195;55.790;37.572;2023-11-19T09:15:16;100494.20;;;-2.17;59.31
20228;BME280;12195;55.790;37.572;2023-11-19T09:17:49;100494.16;;;-2.20;59.55
20228;BME280;12195;55.790;37.572;2023-11-19T09:20:23;100488.97;;;-2.25;59.69
20228;BME280;12195;55.790;37.572;2023-11-19T09:22:57;100476.09;;;-2.26;59.91
20228;BME280;12195;55.790;37.572;2023-11-19T09:25:31;100476.11;;;-2.25;59.94
20228;BME280;12195;55.790;37.572;2023-11-19T09:28:07;100473.52;;;-2.26;59.71
20228;BME280;12195;55.790;37.572;2023-11-19T09:30:40;100478.68;;;-2.25;60.06
20228;BME280;12195;55.790;37.572;2023-11-19T09:33:18;100475.23;;;-2.28;60.34
20228;BME280;12195;55.790;37.572;2023-11-19T09:35:52;100467.52;;;-2.28;60.73
20228;BME280;12195;55.790;37.572;2023-11-19T09:38:25;100458.97;;;-2.26;60.65
20228;BME280;12195;55.790;37.572;2023-11-19T09:40:59;100465.83;;;-2.25;60.94
20228;BME280;12195;55.790;37.572;2023-11-19T09:43:33;100462.41;;;-2.22;61.07
20228;BME280;12195;55.790;37.572;2023-11-19T09:46:14;100452.12;;;-2.22;60.97
20228;BME280;12195;55.790;37.572;2023-11-19T09:48:48;100445.30;;;-2.20;60.88
20228;BME280;12195;55.790;37.572;2023-11-19T09:51:23;100435.03;;;-2.19;61.23
20228;BME280;12195;55.790;37.572;2023-11-19T09:53:56;100435.05;;;-2.17;61.18
20228;BME280;12195;55.790;37.572;2023-11-19T09:56:30;100425.63;;;-2.14;61.29
20228;BME280;12195;55.790;37.572;2023-11-19T09:59:04;100424.79;;;-2.11;61.27
20228;BME280;12195;55.790;37.572;2023-11-19T10:01:40;100430.05;;;-1.96;61.25
20228;BME280;12195;55.790;37.572;2023-11-19T10:04:16;100428.30;;;-2.02;60.80
20228;BME280;12195;55.790;37.572;2023-11-19T10:06:51;100419.69;;;-2.04;60.68
20228;BME280;12195;55.790;37.572;2023-11-19T10:09:27;100417.96;;;-2.06;60.52
20228;BME280;12195;55.790;37.572;2023-11-19T10:12:04;100423.95;;;-2.09;60.66
20228;BME280;12195;55.790;37.572;2023-11-19T10:14:38;100419.66;;;-2.10;61.05
20228;BME280;12195;55.790;37.572;2023-11-19T10:17:13;100413.63;;;-2.12;61.47
20228;BME280;12195;55.790;37.572;2023-11-19T10:19:48;100415.36;;;-2.12;61.21
20228;BME280;12195;55.790;37.572;2023-11-19T10:22:23;100408.49;;;-2.15;61.55
20228;BME280;12195;55.790;37.572;2023-11-19T10:24:58;100403.33;;;-2.13;61.44
20228;BME280;12195;55.790;37.572;2023-11-19T10:27:31;100404.19;;;-2.17;60.81
20228;BME280;12195;55.790;37.572;2023-11-19T10:30:07;100399.86;;;-2.23;60.88
20228;BME280;12195;55.790;37.572;2023-11-19T10:32:41;100403.22;;;-2.30;61.27
20228;BME280;12195;55.790;37.572;2023-11-19T10:35:15;100396.34;;;-2.34;61.35
20228;BME280;12195;55.790;37.572;2023-11-19T10:37:49;100396.34;;;-2.34;61.48
20228;BME280;12195;55.790;37.572;2023-11-19T10:40:22;100398.86;;;-2.38;61.47
20228;BME280;12195;55.790;37.572;2023-11-19T10:43:03;100400.57;;;-2.40;61.49
20228;BME280;12195;55.790;37.572;2023-11-19T10:45:38;100405.66;;;-2.45;61.46
20228;BME280;12195;55.790;37.572;2023-11-19T10:48:11;100407.38;;;-2.47;61.03
20228;BME280;12195;55.790;37.572;2023-11-19T10:50:45;100404.73;;;-2.53;61.24
20228;BME280;12195;55.790;37.572;2023-11-19T10:53:19;100413.30;;;-2.54;61.38
20228;BME280;12195;55.790;37.572;2023-11-19T10:55:55;100407.30;;;-2.56;61.53
20228;BME280;12195;55.790;37.572;2023-11-19T10:58:33;100410.73;;;-2.54;61.54
20228;BME280;12195;55.790;37.572;2023-11-19T11:01:13;100410.78;;;-2.49;61.29
20228;BME280;12195;55.790;37.572;2023-11-19T11:03:48;100409.92;;;-2.48;60.98
20228;BME280;12195;55.790;37.572;2023-11-19T11:06:24;100401.34;;;-2.49;60.87
20228;BME280;12195;55.790;37.572;2023-11-19T11:09:02;100398.75;;;-2.50;60.79
20228;BME280;12195;55.790;37.572;2023-11-19T11:11:36;100410.80;;;-2.48;60.70
20228;BME280;12195;55.790;37.572;2023-11-19T11:14:12;100409.09;;;-2.46;60.29
20228;BME280;12195;55.790;37.572;2023-11-19T11:16:50;100404.80;;;-2.47;59.87
20228;BME280;12195;55.790;37.572;2023-11-19T11:19:25;100400.52;;;-2.48;59.75
20228;BME280;12195;55.790;37.572;2023-11-19T11:22:01;100397.91;;;-2.51;59.44
20228;BME280;12195;55.790;37.572;2023-11-19T11:25:02;100392.80;;;-2.49;59.29
20228;BME280;12195;55.790;37.572;2023-11-19T11:31:24;100391.98;;;-2.44;59.03
20228;BME280;12195;55.790;37.572;2023-11-19T11:38:44;100384.31;;;-2.38;58.54
20228;BME280;12195;55.790;37.572;2023-11-19T11:41:23;100385.17;;;-2.34;58.33
20228;BME280;12195;55.790;37.572;2023-11-19T11:43:59;100378.33;;;-2.35;58.40
20228;BME280;12195;55.790;37.572;2023-11-19T11:49:12;100381.77;;;-2.32;58.10
20228;BME280;12195;55.790;37.572;2023-11-19T11:57:12;100385.20;;;-2.33;57.57
20228;BME280;12195;55.790;37.572;2023-11-19T11:59:47;100381.78;;;-2.33;57.79
20228;BME280;12195;55.790;37.572;2023-11-19T12:02:22;100380.91;;;-2.34;57.65
20228;BME280;12195;55.790;37.572;2023-11-19T12:04:56;100380.91;;;-2.34;57.60
20228;BME280;12195;55.790;37.572;2023-11-19T12:07:29;100380.95;;;-2.29;57.60
20228;BME280;12195;55.790;37.572;2023-11-19T12:10:10;100374.97;;;-2.27;57.53
20228;BME280;12195;55.790;37.572;2023-11-19T12:12:40;100381.93;;;-2.12;58.30
20228;BME280;12195;55.790;37.572;2023-11-19T12:15:15;100374.14;;;-2.23;57.08
20228;BME280;12195;55.790;37.572;2023-11-19T12:17:52;100379.25;;;-2.26;57.07
20228;BME280;12195;55.790;37.572;2023-11-19T12:20:26;100380.07;;;-2.31;56.87
20228;BME280;12195;55.790;37.572;2023-11-19T12:23:04;100378.33;;;-2.35;56.99
20228;BME280;12195;55.790;37.572;2023-11-19T12:25:40;100385.18;;;-2.37;56.95
20228;BME280;12195;55.790;37.572;2023-11-19T12:28:13;100378.31;;;-2.40;57.13
20228;BME280;12195;55.790;37.572;2023-11-19T12:30:50;100376.58;;;-2.39;57.16
20228;BME280;12195;55.790;37.572;2023-11-19T12:33:23;100373.16;;;-2.41;56.96
20228;BME280;12195;55.790;37.572;2023-11-19T12:35:56;100362.00;;;-2.42;56.96
20228;BME280;12195;55.790;37.572;2023-11-19T12:38:31;100362.00;;;-2.42;56.96
20228;BME280;12195;55.790;37.572;2023-11-19T12:41:09;100373.16;;;-2.41;56.87
20228;BME280;12195;55.790;37.572;2023-11-19T12:43:44;100360.27;;;-2.44;56.71
20228;BME280;12195;55.790;37.572;2023-11-19T12:46:24;100364.52;;;-2.46;56.74
20228;BME280;12195;55.790;37.572;2023-11-19T12:48:59;100355.09;;;-2.47;56.59
20228;BME280;12195;55.790;37.572;2023-11-19T12:51:33;100356.83;;;-2.48;56.53
20228;BME280;12195;55.790;37.572;2023-11-19T12:54:08;100353.37;;;-2.50;56.48
20228;BME280;12195;55.790;37.572;2023-11-19T12:56:53;100350.80;;;-2.50;56.34
20228;BME280;12195;55.790;37.572;2023-11-19T12:59:29;100349.06;;;-2.52;56.51
20228;BME280;12195;55.790;37.572;2023-11-19T13:02:03;100336.19;;;-2.55;56.33
20228;BME280;12195;55.790;37.572;2023-11-19T13:04:38;100341.31;;;-2.60;56.32
20228;BME280;12195;55.790;37.572;2023-11-19T13:07:12;100332.67;;;-2.65;56.52
20228;BME280;12195;55.790;37.572;2023-11-19T13:09:48;100331.78;;;-2.70;56.39
20228;BME280;12195;55.790;37.572;2023-11-19T13:12:20;100327.44;;;-2.80;56.39
20228;BME280;12195;55.790;37.572;2023-11-19T13:14:55;100330.80;;;-2.85;56.24
20228;BME280;12195;55.790;37.572;2023-11-19T13:17:30;100329.00;;;-2.97;56.76
20228;BME280;12195;55.790;37.572;2023-11-19T13:20:03;100323.81;;;-3.01;57.08
20228;BME280;12195;55.790;37.572;2023-11-19T13:22:36;100320.42;;;-2.97;57.22
20228;BME280;12195;55.790;37.572;2023-11-19T13:25:09;100319.49;;;-3.05;57.44
20228;BME280;12195;55.790;37.572;2023-11-19T13:27:42;100316.87;;;-3.10;57.52
20228;BME280;12195;55.790;37.572;2023-11-19T13:30:19;100312.56;;;-3.12;57.57
20228;BME280;12195;55.790;37.572;2023-11-19T13:32:57;100316.02;;;-3.12;57.71